sensor_id;sensor_type;location;lat;lon;timestamp;pressure;altitude;pressure_sealevel;temperature;humidity
68193;BME280;55012;47.562;18.414;2023-02-28T00:00:17;100305.06;;;0.41;100.00
68193;BME280;55012;47.562;18.414;2023-02-28T00:02:43;100306.94;;;0.41;100.00
68193;BME280;55012;47.562;18.414;2023-02-28T00:05:11;100303.25;;;0.42;100.00
68193;BME280;55012;47.562;18.414;2023-02-28T00:07:37;100304.59;;;0.44;100.00
68193;BME280;55012;47.562;18.414;2023-02-28T00:10:07;100300.88;;;0.45;100.00
68193;BME280;55012;47.562;18.414;2023-02-28T00:12:33;100310.72;;;0.45;100.00
68193;BME280;55012;47.562;18.414;2023-02-28T00:14:59;100316.56;;;0.42;100.00
68193;BME280;55012;47.562;18.414;2023-02-28T00:17:25;100316.84;;;0.45;100.00
68193;BME280;55012;47.562;18.414;2023-02-28T00:19:51;100321.38;;;0.45;100.00
68193;BME280;55012;47.562;18.414;2023-02-28T00:22:20;100320.56;;;0.44;100.00
68193;BME280;55012;47.562;18.414;2023-02-28T00:24:46;100323.50;;;0.43;100.00
68193;BME280;55012;47.562;18.414;2023-02-28T00:27:12;100324.78;;;0.40;100.00
68193;BME280;55012;47.562;18.414;2023-02-28T00:29:38;100334.06;;;0.38;100.00
68193;BME280;55012;47.562;18.414;2023-02-28T00:32:04;100332.22;;;0.38;100.00
68193;BME280;55012;47.562;18.414;2023-02-28T00:34:30;100340.44;;;0.37;100.00
68193;BME280;55012;47.562;18.414;2023-02-28T00:36:56;100344.97;;;0.36;100.00
68193;BME280;55012;47.562;18.414;2023-02-28T00:39:21;100339.41;;;0.38;100.00
68193;BME280;55012;47.562;18.414;2023-02-28T00:41:47;100342.06;;;0.38;100.00
68193;BME280;55012;47.562;18.414;2023-02-28T00:44:12;100342.31;;;0.36;100.00
68193;BME280;55012;47.562;18.414;2023-02-28T00:46:38;100343.91;;;0.37;100.00
68193;BME280;55012;47.562;18.414;2023-02-28T00:49:03;100351.34;;;0.35;100.00
68193;BME280;55012;47.562;18.414;2023-02-28T00:51:29;100346.22;;;0.28;100.00
68193;BME280;55012;47.562;18.414;2023-02-28T00:53:54;100351.28;;;0.30;100.00
68193;BME280;55012;47.562;18.414;2023-02-28T00:56:20;100351.78;;;0.27;100.00
68193;BME280;55012;47.562;18.414;2023-02-28T00:58:45;100349.38;;;0.25;100.00
68193;BME280;55012;47.562;18.414;2023-02-28T01:01:11;100355.25;;;0.27;100.00
68193;BME280;55012;47.562;18.414;2023-02-28T01:03:36;100348.88;;;0.28;100.00
68193;BME280;55012;47.562;18.414;2023-02-28T01:06:02;100347.56;;;0.31;100.00
68193;BME280;55012;47.562;18.414;2023-02-28T01:08:27;100350.78;;;0.33;100.00
68193;BME280;55012;47.562;18.414;2023-02-28T01:10:53;100359.09;;;0.37;100.00
68193;BME280;55012;47.562;18.414;2023-02-28T01:13:19;100356.41;;;0.37;100.00
68193;BME280;55012;47.562;18.414;2023-02-28T01:15:54;100361.69;;;0.32;100.00
68193;BME280;55012;47.562;18.414;2023-02-28T01:18:20;100363.50;;;0.26;100.00
68193;BME280;55012;47.562;18.414;2023-02-28T01:20:45;100368.56;;;0.27;100.00
68193;BME280;55012;47.562;18.414;2023-02-28T01:23:11;100362.72;;;0.31;100.00
68193;BME280;55012;47.562;18.414;2023-02-28T01:25:37;100364.59;;;0.30;100.00
68193;BME280;55012;47.562;18.414;2023-02-28T01:28:03;100363.53;;;0.31;100.00
68193;BME280;55012;47.562;18.414;2023-02-28T01:30:28;100372.31;;;0.32;100.00
68193;BME280;55012;47.562;18.414;2023-02-28T01:32:55;100365.47;;;0.36;100.00
68193;BME280;55012;47.562;18.414;2023-02-28T01:35:20;100367.63;;;0.39;100.00
68193;BME280;55012;47.562;18.414;2023-02-28T01:37:46;100360.69;;;0.38;100.00
68193;BME280;55012;47.562;18.414;2023-02-28T01:40:12;100365.75;;;0.39;100.00
68193;BME280;55012;47.562;18.414;2023-02-28T01:42:37;100362.09;;;0.45;100.00
68193;BME280;55012;47.562;18.414;2023-02-28T01:45:26;100364.50;;;0.47;100.00
68193;BME280;55012;47.562;18.414;2023-02-28T01:48:03;100360.00;;;0.47;100.00
68193;BME280;55012;47.562;18.414;2023-02-28T01:50:34;100351.75;;;0.49;100.00
68193;BME280;55012;47.562;18.414;2023-02-28T01:53:06;100356.78;;;0.45;100.00
68193;BME280;55012;47.562;18.414;2023-02-28T01:55:32;100360.50;;;0.44;100.00
68193;BME280;55012;47.562;18.414;2023-02-28T01:58:00;100359.44;;;0.45;100.00
68193;BME280;55012;47.562;18.414;2023-02-28T02:00:28;100355.47;;;0.48;100.00
68193;BME280;55012;47.562;18.414;2023-02-28T02:03:08;100365.06;;;0.49;100.00
68193;BME280;55012;47.562;18.414;2023-02-28T02:05:36;100357.88;;;0.49;100.00
68193;BME280;55012;47.562;18.414;2023-02-28T02:08:05;100363.16;;;0.44;100.00
68193;BME280;55012;47.562;18.414;2023-02-28T02:11:04;100359.38;;;0.40;100.00
68193;BME280;55012;47.562;18.414;2023-02-28T02:24:59;100364.31;;;0.53;100.00
68193;BME280;55012;47.562;18.414;2023-02-28T02:38:55;100369.66;;;0.53;100.00
68193;BME280;55012;47.562;18.414;2023-02-28T02:41:30;100374.41;;;0.51;100.00
68193;BME280;55012;47.562;18.414;2023-02-28T02:46:34;100375.16;;;0.47;100.00
68193;BME280;55012;47.562;18.414;2023-02-28T02:49:03;100374.34;;;0.46;100.00
68193;BME280;55012;47.562;18.414;2023-02-28T02:51:32;100372.50;;;0.47;100.00
68193;BME280;55012;47.562;18.414;2023-02-28T02:54:04;100373.84;;;0.49;100.00
68193;BME280;55012;47.562;18.414;2023-02-28T02:56:32;100378.13;;;0.50;100.00
68193;BME280;55012;47.562;18.414;2023-02-28T02:59:04;100377.63;;;0.53;100.00
68193;BME280;55012;47.562;18.414;2023-02-28T03:01:33;100374.97;;;0.53;100.00
68193;BME280;55012;47.562;18.414;2023-02-28T03:04:10;100375.78;;;0.54;100.00
68193;BME280;55012;47.562;18.414;2023-02-28T03:06:36;100378.19;;;0.55;100.00
68193;BME280;55012;47.562;18.414;2023-02-28T03:09:02;100379.84;;;0.62;100.00
68193;BME280;55012;47.562;18.414;2023-02-28T03:11:29;100372.41;;;0.64;100.00
68193;BME280;55012;47.562;18.414;2023-02-28T03:16:36;100380.47;;;0.74;100.00
68193;BME280;55012;47.562;18.414;2023-02-28T03:27:28;100378.88;;;0.73;100.00
68193;BME280;55012;47.562;18.414;2023-02-28T03:30:23;100384.47;;;0.71;100.00
68193;BME280;55012;47.562;18.414;2023-02-28T03:32:57;100383.66;;;0.71;100.00
68193;BME280;55012;47.562;18.414;2023-02-28T03:35:28;100390.09;;;0.75;100.00
68193;BME280;55012;47.562;18.414;2023-02-28T03:38:08;100389.84;;;0.76;100.00
68193;BME280;55012;47.562;18.414;2023-02-28T03:40:43;100394.38;;;0.76;100.00
68193;BME280;55012;47.562;18.414;2023-02-28T03:43:14;100399.69;;;0.76;100.00
68193;BME280;55012;47.562;18.414;2023-02-28T03:45:43;100401.00;;;0.73;100.00
68193;BME280;55012;47.562;18.414;2023-02-28T03:48:53;100397.84;;;0.76;100.00
68193;BME280;55012;47.562;18.414;2023-02-28T03:50:59;100398.13;;;0.80;100.00
68193;BME280;55012;47.562;18.414;2023-02-28T03:53:36;100399.25;;;0.84;100.00
68193;BME280;55012;47.562;18.414;2023-02-28T03:56:12;100396.88;;;0.88;100.00
68193;BME280;55012;47.562;18.414;2023-02-28T04:01:20;100387.34;;;0.92;100.00
68193;BME280;55012;47.562;18.414;2023-02-28T04:03:47;100391.59;;;0.93;100.00
68193;BME280;55012;47.562;18.414;2023-02-28T04:06:18;100391.28;;;0.89;100.00
68193;BME280;55012;47.562;18.414;2023-02-28T04:08:44;100391.81;;;0.86;100.00
68193;BME280;55012;47.562;18.414;2023-02-28T04:11:29;100390.75;;;0.87;100.00
68193;BME280;55012;47.562;18.414;2023-02-28T04:13:56;100391.19;;;0.79;100.00
68193;BME280;55012;47.562;18.414;2023-02-28T04:16:22;100394.72;;;0.84;100.00
68193;BME280;55012;47.562;18.414;2023-02-28T04:18:47;100400.34;;;0.88;100.00
68193;BME280;55012;47.562;18.414;2023-02-28T04:21:13;100405.19;;;0.91;100.00
68193;BME280;55012;47.562;18.414;2023-02-28T04:23:39;100400.41;;;0.93;100.00
68193;BME280;55012;47.562;18.414;2023-02-28T04:26:04;100403.59;;;0.95;100.00
68193;BME280;55012;47.562;18.414;2023-02-28T04:28:31;100392.69;;;0.97;100.00
68193;BME280;55012;47.562;18.414;2023-02-28T04:31:02;100393.50;;;0.97;100.00
68193;BME280;55012;47.562;18.414;2023-02-28T04:33:28;100401.50;;;0.97;100.00
68193;BME280;55012;47.562;18.414;2023-02-28T04:36:07;100404.66;;;0.94;100.00
68193;BME280;55012;47.562;18.414;2023-02-28T04:38:38;100399.84;;;0.91;100.00
68193;BME280;55012;47.562;18.414;2023-02-28T04:41:04;100401.41;;;0.87;100.00
68193;BME280;55012;47.562;18.414;2023-02-28T04:43:30;100402.97;;;0.83;100.00
68193;BME280;55012;47.562;18.414;2023-02-28T04:45:57;100402.84;;;0.73;100.00
68193;BME280;55012;47.562;18.414;2023-02-28T04:48:25;100404.91;;;0.66;100.00
68193;BME280;55012;47.562;18.414;2023-02-28T04:50:51;100415.44;;;0.55;100.00
68193;BME280;55012;47.562;18.414;2023-02-28T04:53:17;100408.16;;;0.46;100.00
68193;BME280;55012;47.562;18.414;2023-02-28T04:55:43;100410.72;;;0.36;100.00
68193;BME280;55012;47.562;18.414;2023-02-28T04:58:08;100406.88;;;0.26;100.00
68193;BME280;55012;47.562;18.414;2023-02-28T05:00:34;100408.38;;;0.17;100.00
68193;BME280;55012;47.562;18.414;2023-02-28T05:02:59;100418.38;;;0.10;100.00
68193;BME280;55012;47.562;18.414;2023-02-28T05:05:25;100411.38;;;0.04;100.00
68193;BME280;55012;47.562;18.414;2023-02-28T05:07:50;100413.75;;;0.01;100.00
68193;BME280;55012;47.562;18.414;2023-02-28T05:10:16;100409.94;;;-0.04;100.00
68193;BME280;55012;47.562;18.414;2023-02-28T05:12:41;100409.66;;;-0.07;100.00
68193;BME280;55012;47.562;18.414;2023-02-28T05:15:09;100415.69;;;-0.12;100.00
68193;BME280;55012;47.562;18.414;2023-02-28T05:17:37;100420.44;;;-0.14;100.00
68193;BME280;55012;47.562;18.414;2023-02-28T05:20:03;100415.13;;;-0.14;100.00
68193;BME280;55012;47.562;18.414;2023-02-28T05:22:30;100417.63;;;-0.07;100.00
68193;BME280;55012;47.562;18.414;2023-02-28T05:24:55;100420.41;;;0.03;100.00
68193;BME280;55012;47.562;18.414;2023-02-28T05:27:21;100421.34;;;0.14;100.00
68193;BME280;55012;47.562;18.414;2023-02-28T05:29:46;100416.94;;;0.24;100.00
68193;BME280;55012;47.562;18.414;2023-02-28T05:32:12;100416.84;;;0.36;100.00
68193;BME280;55012;47.562;18.414;2023-02-28T05:34:38;100416.94;;;0.46;100.00
68193;BME280;55012;47.562;18.414;2023-02-28T05:37:05;100419.97;;;0.55;100.00
68193;BME280;55012;47.562;18.414;2023-02-28T05:39:31;100415.81;;;0.64;100.00
68193;BME280;55012;47.562;18.414;2023-02-28T05:41:57;100421.75;;;0.71;100.00
68193;BME280;55012;47.562;18.414;2023-02-28T05:44:22;100431.97;;;0.79;100.00
68193;BME280;55012;47.562;18.414;2023-02-28T05:46:47;100428.84;;;0.88;100.00
68193;BME280;55012;47.562;18.414;2023-02-28T05:49:13;100433.97;;;0.94;100.00
68193;BME280;55012;47.562;18.414;2023-02-28T05:51:38;100436.13;;;0.97;100.00
68193;BME280;55012;47.562;18.414;2023-02-28T05:54:05;100446.03;;;1.02;100.00
68193;BME280;55012;47.562;18.414;2023-02-28T05:56:31;100450.59;;;1.06;100.00
68193;BME280;55012;47.562;18.414;2023-02-28T05:58:57;100445.84;;;1.08;100.00
68193;BME280;55012;47.562;18.414;2023-02-28T06:01:37;100443.22;;;1.13;100.00
68193;BME280;55012;47.562;18.414;2023-02-28T06:04:05;100446.69;;;1.14;100.00
68193;BME280;55012;47.562;18.414;2023-02-28T06:06:31;100444.81;;;1.15;100.00
68193;BME280;55012;47.562;18.414;2023-02-28T06:08:59;100443.53;;;1.17;100.00
68193;BME280;55012;47.562;18.414;2023-02-28T06:11:26;100443.00;;;1.20;100.00
68193;BME280;55012;47.562;18.414;2023-02-28T06:13:56;100445.16;;;1.23;100.00
68193;BME280;55012;47.562;18.414;2023-02-28T06:16:23;100442.25;;;1.25;100.00
68193;BME280;55012;47.562;18.414;2023-02-28T06:18:49;100441.47;;;1.29;100.00
68193;BME280;55012;47.562;18.414;2023-02-28T06:21:14;100447.16;;;1.38;100.00
68193;BME280;55012;47.562;18.414;2023-02-28T06:23:40;100445.34;;;1.44;100.00
68193;BME280;55012;47.562;18.414;2023-02-28T06:26:05;100451.00;;;1.52;100.00
68193;BME280;55012;47.562;18.414;2023-02-28T06:28:31;100456.41;;;1.57;100.00
68193;BME280;55012;47.562;18.414;2023-02-28T06:30:57;100461.50;;;1.64;100.00
68193;BME280;55012;47.562;18.414;2023-02-28T06:33:22;100463.41;;;1.68;100.00
68193;BME280;55012;47.562;18.414;2023-02-28T06:35:50;100467.72;;;1.75;100.00
68193;BME280;55012;47.562;18.414;2023-02-28T06:38:16;100459.19;;;1.78;100.00
68193;BME280;55012;47.562;18.414;2023-02-28T06:40:41;100471.31;;;1.90;100.00
68193;BME280;55012;47.562;18.414;2023-02-28T06:43:07;100473.97;;;1.95;100.00
68193;BME280;55012;47.562;18.414;2023-02-28T06:45:32;100473.75;;;2.02;100.00
68193;BME280;55012;47.562;18.414;2023-02-28T06:47:58;100471.69;;;2.09;100.00
68193;BME280;55012;47.562;18.414;2023-02-28T06:50:25;100475.19;;;2.20;100.00
68193;BME280;55012;47.562;18.414;2023-02-28T06:52:50;100473.38;;;2.25;100.00
68193;BME280;55012;47.562;18.414;2023-02-28T06:55:19;100476.34;;;2.34;100.00
68193;BME280;55012;47.562;18.414;2023-02-28T06:57:44;100477.16;;;2.35;100.00
68193;BME280;55012;47.562;18.414;2023-02-28T07:00:10;100484.31;;;2.29;100.00
68193;BME280;55012;47.562;18.414;2023-02-28T07:02:37;100482.97;;;2.27;100.00
68193;BME280;55012;47.562;18.414;2023-02-28T07:05:03;100481.38;;;2.25;100.00
68193;BME280;55012;47.562;18.414;2023-02-28T07:07:29;100486.72;;;2.25;100.00
68193;BME280;55012;47.562;18.414;2023-02-28T07:09:55;100492.06;;;2.31;100.00
68193;BME280;55012;47.562;18.414;2023-02-28T07:12:21;100491.06;;;2.42;100.00
68193;BME280;55012;47.562;18.414;2023-02-28T07:14:47;100495.34;;;2.48;100.00
68193;BME280;55012;47.562;18.414;2023-02-28T07:17:12;100507.09;;;2.47;100.00
68193;BME280;55012;47.562;18.414;2023-02-28T07:19:38;100514.59;;;2.45;100.00
68193;BME280;55012;47.562;18.414;2023-02-28T07:22:04;100518.41;;;2.12;100.00
68193;BME280;55012;47.562;18.414;2023-02-28T07:24:30;100526.75;;;1.88;100.00
68193;BME280;55012;47.562;18.414;2023-02-28T07:26:56;100519.03;;;1.87;100.00
68193;BME280;55012;47.562;18.414;2023-02-28T07:29:21;100525.97;;;1.88;100.00
68193;BME280;55012;47.562;18.414;2023-02-28T07:31:47;100528.63;;;1.83;100.00
68193;BME280;55012;47.562;18.414;2023-02-28T07:34:13;100526.44;;;1.80;100.00
68193;BME280;55012;47.562;18.414;2023-02-28T07:36:39;100533.28;;;1.71;100.00
68193;BME280;55012;47.562;18.414;2023-02-28T07:39:04;100534.06;;;1.66;100.00
68193;BME280;55012;47.562;18.414;2023-02-28T07:41:30;100530.63;;;1.71;100.00
68193;BME280;55012;47.562;18.414;2023-02-28T07:43:58;100532.56;;;1.80;100.00
68193;BME280;55012;47.562;18.414;2023-02-28T07:46:25;100529.41;;;1.83;100.00
68193;BME280;55012;47.562;18.414;2023-02-28T07:48:51;100529.94;;;1.85;100.00
68193;BME280;55012;47.562;18.414;2023-02-28T07:51:18;100518.56;;;1.95;100.00
68193;BME280;55012;47.562;18.414;2023-02-28T07:53:44;100512.22;;;2.06;100.00
68193;BME280;55012;47.562;18.414;2023-02-28T07:56:09;100512.84;;;2.18;100.00
68193;BME280;55012;47.562;18.414;2023-02-28T07:58:36;100511.28;;;2.28;100.00
68193;BME280;55012;47.562;18.414;2023-02-28T08:01:09;100516.66;;;2.33;100.00
68193;BME280;55012;47.562;18.414;2023-02-28T08:03:35;100523.13;;;2.42;100.00
68193;BME280;55012;47.562;18.414;2023-02-28T08:06:02;100527.97;;;2.55;100.00
68193;BME280;55012;47.562;18.414;2023-02-28T08:08:29;100523.75;;;2.64;100.00
68193;BME280;55012;47.562;18.414;2023-02-28T08:11:02;100525.41;;;2.80;100.00
68193;BME280;55012;47.562;18.414;2023-02-28T08:13:29;100524.66;;;2.95;100.00
68193;BME280;55012;47.562;18.414;2023-02-28T08:15:55;100527.94;;;3.07;100.00
68193;BME280;55012;47.562;18.414;2023-02-28T08:18:22;100528.75;;;3.08;100.00
68193;BME280;55012;47.562;18.414;2023-02-28T08:20:48;100541.84;;;3.09;100.00
68193;BME280;55012;47.562;18.414;2023-02-28T08:23:14;100540.53;;;3.27;100.00
68193;BME280;55012;47.562;18.414;2023-02-28T08:25:39;100543.50;;;3.46;100.00
68193;BME280;55012;47.562;18.414;2023-02-28T08:28:05;100544.88;;;3.59;100.00
68193;BME280;55012;47.562;18.414;2023-02-28T08:30:30;100543.00;;;3.70;100.00
68193;BME280;55012;47.562;18.414;2023-02-28T08:32:56;100537.66;;;3.75;100.00
68193;BME280;55012;47.562;18.414;2023-02-28T08:35:22;100533.38;;;3.94;100.00
68193;BME280;55012;47.562;18.414;2023-02-28T08:37:48;100543.00;;;3.95;100.00
68193;BME280;55012;47.562;18.414;2023-02-28T08:40:14;100544.88;;;3.94;100.00
68193;BME280;55012;47.562;18.414;2023-02-28T08:42:44;100545.44;;;3.81;100.00
68193;BME280;55012;47.562;18.414;2023-02-28T08:45:10;100558.81;;;3.76;100.00
68193;BME280;55012;47.562;18.414;2023-02-28T08:47:36;100555.06;;;3.82;100.00
68193;BME280;55012;47.562;18.414;2023-02-28T08:50:02;100555.06;;;3.82;100.00
68193;BME280;55012;47.562;18.414;2023-02-28T08:52:27;100561.47;;;3.71;100.00
68193;BME280;55012;47.562;18.414;2023-02-28T08:54:53;100553.44;;;3.66;100.00
68193;BME280;55012;47.562;18.414;2023-02-28T08:57:18;100550.53;;;3.73;100.00
68193;BME280;55012;47.562;18.414;2023-02-28T08:59:43;100559.31;;;3.48;100.00
68193;BME280;55012;47.562;18.414;2023-02-28T09:02:12;100561.91;;;3.22;100.00
68193;BME280;55012;47.562;18.414;2023-02-28T09:04:38;100562.44;;;3.19;100.00
68193;BME280;55012;47.562;18.414;2023-02-28T09:07:03;100561.59;;;3.03;100.00
68193;BME280;55012;47.562;18.414;2023-02-28T09:09:29;100551.41;;;2.95;100.00
68193;BME280;55012;47.562;18.414;2023-02-28T09:11:57;100562.28;;;2.78;100.00
68193;BME280;55012;47.562;18.414;2023-02-28T09:14:23;100559.28;;;2.60;100.00
68193;BME280;55012;47.562;18.414;2023-02-28T09:16:49;100550.41;;;2.49;100.00
68193;BME280;55012;47.562;18.414;2023-02-28T09:19:14;100553.88;;;2.49;100.00
68193;BME280;55012;47.562;18.414;2023-02-28T09:21:40;100552.81;;;2.50;100.00
68193;BME280;55012;47.562;18.414;2023-02-28T09:24:06;100554.69;;;2.50;100.00
68193;BME280;55012;47.562;18.414;2023-02-28T09:26:31;100547.91;;;2.32;100.00
68193;BME280;55012;47.562;18.414;2023-02-28T09:28:57;100542.63;;;2.00;100.00
68193;BME280;55012;47.562;18.414;2023-02-28T09:31:26;100544.75;;;2.03;100.00
68193;BME280;55012;47.562;18.414;2023-02-28T09:33:55;100552.97;;;1.96;100.00
68193;BME280;55012;47.562;18.414;2023-02-28T09:36:22;100547.91;;;1.95;100.00
68193;BME280;55012;47.562;18.414;2023-02-28T09:38:48;100545.28;;;2.00;100.00
68193;BME280;55012;47.562;18.414;2023-02-28T09:41:21;100547.38;;;1.98;100.00
68193;BME280;55012;47.562;18.414;2023-02-28T09:43:52;100542.03;;;1.98;100.00
68193;BME280;55012;47.562;18.414;2023-02-28T09:46:27;100542.91;;;2.04;100.00
68193;BME280;55012;47.562;18.414;2023-02-28T09:48:54;100538.09;;;2.06;100.00
68193;BME280;55012;47.562;18.414;2023-02-28T09:51:40;100549.56;;;2.06;100.00
68193;BME280;55012;47.562;18.414;2023-02-28T09:54:15;100546.94;;;2.11;100.00
68193;BME280;55012;47.562;18.414;2023-02-28T09:56:45;100542.41;;;2.12;100.00
68193;BME280;55012;47.562;18.414;2023-02-28T10:05:15;100548.97;;;2.36;100.00
68193;BME280;55012;47.562;18.414;2023-02-28T10:07:50;100525.78;;;2.42;100.00
68193;BME280;55012;47.562;18.414;2023-02-28T10:10:35;100535.16;;;2.44;100.00
68193;BME280;55012;47.562;18.414;2023-02-28T10:13:11;100533.56;;;2.48;100.00
68193;BME280;55012;47.562;18.414;2023-02-28T10:15:38;100533.72;;;2.32;100.00
68193;BME280;55012;47.562;18.414;2023-02-28T10:18:06;100530.56;;;2.35;100.00
68193;BME280;55012;47.562;18.414;2023-02-28T10:20:38;100529.53;;;2.46;100.00
68193;BME280;55012;47.562;18.414;2023-02-28T10:23:27;100537.38;;;2.58;100.00
68193;BME280;55012;47.562;18.414;2023-02-28T10:26:14;100540.03;;;2.63;100.00
68193;BME280;55012;47.562;18.414;2023-02-28T10:28:41;100540.84;;;2.58;100.00
68193;BME280;55012;47.562;18.414;2023-02-28T10:31:13;100536.06;;;2.65;100.00
68193;BME280;55012;47.562;18.414;2023-02-28T10:33:40;100533.69;;;2.74;100.00
68193;BME280;55012;47.562;18.414;2023-02-28T10:36:08;100531.28;;;2.77;100.00
68193;BME280;55012;47.562;18.414;2023-02-28T10:38:39;100522.25;;;2.84;100.00
68193;BME280;55012;47.562;18.414;2023-02-28T10:41:08;100533.44;;;2.80;100.00
68193;BME280;55012;47.562;18.414;2023-02-28T10:43:36;100519.25;;;2.70;100.00
68193;BME280;55012;47.562;18.414;2023-02-28T10:46:11;100511.19;;;2.65;100.00
68193;BME280;55012;47.562;18.414;2023-02-28T10:48:48;100507.97;;;2.63;100.00
68193;BME280;55012;47.562;18.414;2023-02-28T10:51:18;100506.69;;;2.65;100.00
68193;BME280;55012;47.562;18.414;2023-02-28T10:53:51;100498.13;;;2.68;100.00
68193;BME280;55012;47.562;18.414;2023-02-28T10:56:22;100485.09;;;2.82;100.00
68193;BME280;55012;47.562;18.414;2023-02-28T10:58:52;100484.31;;;2.97;100.00
68193;BME280;55012;47.562;18.414;2023-02-28T11:01:21;100483.25;;;3.03;100.00
68193;BME280;55012;47.562;18.414;2023-02-28T11:03:48;100484.34;;;3.12;100.00
68193;BME280;55012;47.562;18.414;2023-02-28T11:06:29;100477.38;;;3.06;100.00
68193;BME280;55012;47.562;18.414;2023-02-28T11:09:22;100492.34;;;3.02;100.00
68193;BME280;55012;47.562;18.414;2023-02-28T11:11:46;100493.13;;;2.97;100.00
68193;BME280;55012;47.562;18.414;2023-02-28T11:14:23;100470.72;;;2.98;100.00
68193;BME280;55012;47.562;18.414;2023-02-28T11:16:51;100461.63;;;3.09;100.00
68193;BME280;55012;47.562;18.414;2023-02-28T11:19:31;100469.69;;;3.25;100.00
68193;BME280;55012;47.562;18.414;2023-02-28T11:22:03;100457.91;;;3.41;100.00
68193;BME280;55012;47.562;18.414;2023-02-28T11:24:51;100476.91;;;3.60;100.00
68193;BME280;55012;47.562;18.414;2023-02-28T11:29:58;100457.66;;;3.73;100.00
68193;BME280;55012;47.562;18.414;2023-02-28T11:32:26;100452.00;;;3.85;100.00
68193;BME280;55012;47.562;18.414;2023-02-28T11:37:39;100467.00;;;3.76;100.00
68193;BME280;55012;47.562;18.414;2023-02-28T11:40:20;100469.41;;;3.72;100.00
68193;BME280;55012;47.562;18.414;2023-02-28T11:43:06;100464.06;;;3.82;100.00
68193;BME280;55012;47.562;18.414;2023-02-28T11:46:06;100472.06;;;3.92;100.00
68193;BME280;55012;47.562;18.414;2023-02-28T11:48:44;100466.97;;;3.86;100.00
68193;BME280;55012;47.562;18.414;2023-02-28T11:56:47;100458.69;;;3.92;100.00
68193;BME280;55012;47.562;18.414;2023-02-28T12:02:25;100449.25;;;4.15;100.00
68193;BME280;55012;47.562;18.414;2023-02-28T12:05:14;100442.00;;;4.31;100.00
68193;BME280;55012;47.562;18.414;2023-02-28T12:11:06;100455.09;;;4.28;100.00
68193;BME280;55012;47.562;18.414;2023-02-28T12:14:09;100447.06;;;4.33;100.00
68193;BME280;55012;47.562;18.414;2023-02-28T12:17:14;100442.19;;;4.45;100.00
68193;BME280;55012;47.562;18.414;2023-02-28T12:19:56;100430.94;;;4.48;100.00
68193;BME280;55012;47.562;18.414;2023-02-28T12:22:51;100439.19;;;4.57;100.00
68193;BME280;55012;47.562;18.414;2023-02-28T12:26:16;100424.09;;;4.71;100.00
68193;BME280;55012;47.562;18.414;2023-02-28T12:28:20;100422.47;;;4.80;100.00
68193;BME280;55012;47.562;18.414;2023-02-28T12:30:53;100425.09;;;4.85;100.00
68193;BME280;55012;47.562;18.414;2023-02-28T12:33:22;100424.66;;;4.68;100.00
68193;BME280;55012;47.562;18.414;2023-02-28T12:35:54;100410.75;;;4.66;100.00
68193;BME280;55012;47.562;18.414;2023-02-28T12:41:25;100403.31;;;4.97;100.00
68193;BME280;55012;47.562;18.414;2023-02-28T12:44:00;100389.78;;;5.12;100.00
68193;BME280;55012;47.562;18.414;2023-02-28T12:46:34;100396.41;;;5.25;100.00
68193;BME280;55012;47.562;18.414;2023-02-28T12:49:06;100396.09;;;5.31;100.00
68193;BME280;55012;47.562;18.414;2023-02-28T12:51:34;100392.81;;;5.34;100.00
68193;BME280;55012;47.562;18.414;2023-02-28T12:56:33;100396.28;;;5.40;100.00
68193;BME280;55012;47.562;18.414;2023-02-28T12:59:39;100394.69;;;5.39;100.00
68193;BME280;55012;47.562;18.414;2023-02-28T13:02:27;100393.53;;;5.45;100.00
68193;BME280;55012;47.562;18.414;2023-02-28T13:10:07;100384.34;;;5.51;100.00
68193;BME280;55012;47.562;18.414;2023-02-28T13:12:33;100374.59;;;5.60;100.00
68193;BME280;55012;47.562;18.414;2023-02-28T13:15:07;100372.09;;;5.69;100.00
68193;BME280;55012;47.562;18.414;2023-02-28T13:17:39;100369.53;;;5.59;100.00
68193;BME280;55012;47.562;18.414;2023-02-28T13:20:15;100370.09;;;5.56;100.00
68193;BME280;55012;47.562;18.414;2023-02-28T13:22:44;100380.31;;;5.54;100.00
68193;BME280;55012;47.562;18.414;2023-02-28T13:27:52;100370.53;;;5.39;100.00
68193;BME280;55012;47.562;18.414;2023-02-28T13:36:10;100355.66;;;5.76;100.00
68193;BME280;55012;47.562;18.414;2023-02-28T13:38:44;100364.94;;;5.88;100.00
68193;BME280;55012;47.562;18.414;2023-02-28T13:46:28;100352.47;;;6.22;100.00
68193;BME280;55012;47.562;18.414;2023-02-28T13:48:54;100355.09;;;6.27;100.00
68193;BME280;55012;47.562;18.414;2023-02-28T13:51:49;100349.94;;;6.30;100.00
68193;BME280;55012;47.562;18.414;2023-02-28T13:54:28;100352.56;;;6.35;100.00
68193;BME280;55012;47.562;18.414;2023-02-28T13:57:39;100346.22;;;6.45;100.00
68193;BME280;55012;47.562;18.414;2023-02-28T14:06:16;100351.84;;;6.48;100.00
68193;BME280;55012;47.562;18.414;2023-02-28T14:09:17;100352.59;;;6.54;100.00
68193;BME280;55012;47.562;18.414;2023-02-28T14:11:45;100347.06;;;6.64;100.00
68193;BME280;55012;47.562;18.414;2023-02-28T14:17:15;100347.69;;;6.75;100.00
68193;BME280;55012;47.562;18.414;2023-02-28T14:19:45;100346.09;;;6.74;100.00
68193;BME280;55012;47.562;18.414;2023-02-28T14:22:36;100347.94;;;6.79;100.00
68193;BME280;55012;47.562;18.414;2023-02-28T14:25:10;100352.41;;;6.83;100.00
68193;BME280;55012;47.562;18.414;2023-02-28T14:28:11;100341.66;;;6.83;100.00
68193;BME280;55012;47.562;18.414;2023-02-28T14:36:39;100336.91;;;6.94;100.00